Terminal Aerodrome Forecast
Issued by NWS

Home | Current Version | Previous Version | Text Only | Print | Product List | Glossary On
Versions: 1 2 3 4 5 6 7 8 9 10 11 12 13 14
000
FTAK31 PAJN 132336
TAFAPG
TAF
PAPG 132336Z 1400/1424 14004KT 6SM -RA FEW015 OVC025 WS020/14040KT
     FM140600 11010G20KT 4SM RA BR SCT010 OVC020 WS020/15040KT
     FM141500 11010KT 3SM RA BR OVC010 WS020/15035KT
      AMD LTD TO CLD VIS AND WIND 1406/1415=

USA.gov is the U.S. government's official web portal to all federal, state and local government web resources and services.